createdAt,value
2022-08-28T00:01:57.410Z,25.70
2022-08-28T00:04:24.135Z,25.69
2022-08-28T00:06:50.826Z,25.58
2022-08-28T00:09:17.393Z,25.68
2022-08-28T00:11:43.891Z,25.69
2022-08-28T00:14:11.079Z,25.69
2022-08-28T00:16:37.642Z,25.72
2022-08-28T00:19:05.730Z,25.66
2022-08-28T00:21:32.706Z,25.70
2022-08-28T00:24:00.444Z,25.67
2022-08-28T00:26:27.030Z,25.52
2022-08-28T00:28:53.535Z,25.40
2022-08-28T00:31:20.036Z,25.46
2022-08-28T00:33:48.182Z,25.54
2022-08-28T00:36:14.809Z,25.50
2022-08-28T00:38:41.326Z,25.52
2022-08-28T00:41:09.007Z,25.49
2022-08-28T00:43:42.433Z,25.49
2022-08-28T00:46:13.332Z,25.29
2022-08-28T00:48:40.193Z,25.37
2022-08-28T00:51:07.910Z,25.34
2022-08-28T00:53:34.560Z,25.38
2022-08-28T00:56:13.333Z,25.36
2022-08-28T00:58:44.845Z,25.22
2022-08-28T01:01:13.429Z,25.25
2022-08-28T01:03:41.113Z,25.13
2022-08-28T01:06:10.101Z,25.07
2022-08-28T01:08:42.397Z,24.98
2022-08-28T01:11:10.607Z,24.98
2022-08-28T01:13:41.119Z,24.89
2022-08-28T01:16:08.926Z,24.90
2022-08-28T01:18:35.582Z,24.79
2022-08-28T01:21:07.819Z,24.87
2022-08-28T01:23:54.015Z,24.90
2022-08-28T01:26:22.004Z,24.88
2022-08-28T01:28:48.705Z,24.88
2022-08-28T01:31:16.839Z,24.83
2022-08-28T01:33:45.210Z,24.79
2022-08-28T01:36:14.651Z,24.73
2022-08-28T01:38:45.106Z,24.63
2022-08-28T01:41:12.634Z,24.72
2022-08-28T01:43:40.289Z,24.52
2022-08-28T01:46:07.089Z,24.53
2022-08-28T01:48:37.022Z,24.52
2022-08-28T01:51:05.254Z,24.56
2022-08-28T01:53:33.546Z,24.51
2022-08-28T01:56:04.634Z,24.57
2022-08-28T01:58:34.911Z,24.59
2022-08-28T02:01:10.138Z,24.34
2022-08-28T02:03:37.143Z,24.38
2022-08-28T02:06:03.900Z,24.15
2022-08-28T02:08:30.378Z,24.21
2022-08-28T02:10:56.877Z,24.25
2022-08-28T02:13:23.423Z,24.25
2022-08-28T02:15:52.443Z,24.16
2022-08-28T02:18:19.464Z,24.22
2022-08-28T02:20:46.093Z,24.20
2022-08-28T02:23:12.679Z,24.12
2022-08-28T02:25:39.265Z,23.96
2022-08-28T02:28:05.877Z,24.15
2022-08-28T02:30:32.498Z,23.81
2022-08-28T02:32:59.021Z,23.86
2022-08-28T02:35:25.539Z,23.39
2022-08-28T02:37:54.582Z,23.34
2022-08-28T02:40:24.440Z,23.07
2022-08-28T02:42:51.389Z,23.40
2022-08-28T02:45:18.981Z,22.76
2022-08-28T02:47:46.738Z,22.91
2022-08-28T02:50:17.400Z,23.10
2022-08-28T02:52:43.907Z,22.88
2022-08-28T02:55:13.295Z,22.50
2022-08-28T02:57:39.857Z,22.17
2022-08-28T03:00:09.376Z,22.24
2022-08-28T03:02:35.939Z,22.30
2022-08-28T03:05:03.221Z,22.54
2022-08-28T03:07:29.737Z,22.47
2022-08-28T03:09:56.742Z,22.51
2022-08-28T03:12:23.280Z,22.86
2022-08-28T03:14:54.386Z,23.01
2022-08-28T03:17:21.203Z,22.88
2022-08-28T03:19:48.557Z,22.75
2022-08-28T03:22:15.192Z,22.69
2022-08-28T03:24:41.675Z,22.62
2022-08-28T03:27:08.254Z,22.59
2022-08-28T03:29:35.038Z,22.60
2022-08-28T03:32:01.626Z,22.60
2022-08-28T03:34:28.125Z,22.28
2022-08-28T03:36:54.699Z,22.10
2022-08-28T03:39:21.299Z,22.08
2022-08-28T03:41:47.812Z,21.78
2022-08-28T03:44:14.314Z,21.87
2022-08-28T03:46:40.883Z,21.68
2022-08-28T03:49:07.377Z,21.62
2022-08-28T03:51:34.864Z,20.99
2022-08-28T03:54:04.198Z,20.94
2022-08-28T03:56:31.130Z,20.96
2022-08-28T03:59:01.029Z,21.04
2022-08-28T04:01:27.966Z,21.01
2022-08-28T04:03:55.878Z,21.01
2022-08-28T04:06:22.388Z,20.96
2022-08-28T04:08:48.892Z,21.00
2022-08-28T04:11:15.379Z,20.95
2022-08-28T04:13:41.874Z,21.03
2022-08-28T04:16:11.518Z,21.10
2022-08-28T04:18:40.483Z,21.14
2022-08-28T04:21:13.067Z,20.97
2022-08-28T04:23:41.807Z,20.76
2022-08-28T04:26:11.795Z,20.62
2022-08-28T04:28:38.274Z,20.70
2022-08-28T04:31:05.927Z,21.01
2022-08-28T04:33:32.432Z,20.85
2022-08-28T04:36:07.425Z,20.58
2022-08-28T04:38:33.968Z,20.75
2022-08-28T04:41:04.841Z,20.86
2022-08-28T04:43:31.387Z,20.70
2022-08-28T04:45:58.343Z,20.74
2022-08-28T04:48:24.883Z,20.64
2022-08-28T04:50:51.403Z,20.38
2022-08-28T04:53:19.820Z,20.20
2022-08-28T04:55:55.078Z,20.10
2022-08-28T04:58:24.092Z,20.22
2022-08-28T05:00:53.241Z,20.46
2022-08-28T05:03:20.934Z,20.48
2022-08-28T05:05:51.102Z,20.66
2022-08-28T05:08:20.763Z,20.55
2022-08-28T05:10:47.931Z,20.62
2022-08-28T05:13:15.979Z,20.40
2022-08-28T05:15:44.986Z,20.24
2022-08-28T05:18:12.877Z,20.43
2022-08-28T05:20:43.532Z,20.54
2022-08-28T05:23:10.949Z,20.43
2022-08-28T05:25:40.263Z,20.45
2022-08-28T05:28:11.784Z,20.57
2022-08-28T05:30:40.930Z,20.66
2022-08-28T05:33:08.952Z,20.18
2022-08-28T05:35:38.629Z,20.31
2022-08-28T05:38:07.114Z,20.34
2022-08-28T05:40:34.504Z,20.23
2022-08-28T05:43:01.069Z,20.39
2022-08-28T05:45:27.695Z,20.40
2022-08-28T05:47:54.199Z,20.57
2022-08-28T05:50:20.740Z,21.06
2022-08-28T05:52:47.284Z,21.21
2022-08-28T05:55:13.927Z,21.07
2022-08-28T05:57:40.997Z,21.05
2022-08-28T06:00:09.459Z,20.87
2022-08-28T06:02:35.970Z,20.64
2022-08-28T06:05:02.512Z,20.93
2022-08-28T06:07:29.007Z,21.36
2022-08-28T06:09:55.889Z,21.59
2022-08-28T06:12:22.395Z,21.98
2022-08-28T06:14:49.214Z,21.85
2022-08-28T06:17:16.546Z,21.90
2022-08-28T06:19:50.021Z,22.09
2022-08-28T06:22:16.543Z,22.44
2022-08-28T06:24:43.041Z,22.48
2022-08-28T06:27:09.522Z,22.66
2022-08-28T06:29:36.057Z,22.51
2022-08-28T06:32:03.272Z,22.35
2022-08-28T06:34:30.190Z,22.53
2022-08-28T06:36:56.703Z,22.89
2022-08-28T06:39:23.398Z,22.62
2022-08-28T06:41:49.935Z,22.92
2022-08-28T06:44:19.357Z,23.19
2022-08-28T06:46:49.056Z,23.29
2022-08-28T06:49:15.608Z,23.59
2022-08-28T06:51:42.088Z,23.78
2022-08-28T06:54:08.837Z,23.71
2022-08-28T06:56:35.738Z,23.97
2022-08-28T06:59:02.427Z,24.20
2022-08-28T07:01:35.044Z,24.29
2022-08-28T07:04:05.213Z,24.34
2022-08-28T07:06:35.638Z,24.36
2022-08-28T07:09:05.142Z,24.42
2022-08-28T07:11:34.365Z,24.15
2022-08-28T07:14:02.173Z,24.29
2022-08-28T07:16:36.482Z,24.36
2022-08-28T07:19:03.004Z,24.60
2022-08-28T07:21:29.567Z,24.76
2022-08-28T07:23:56.041Z,24.90
2022-08-28T07:26:24.941Z,25.07
2022-08-28T07:28:53.261Z,25.16
2022-08-28T07:31:36.473Z,25.17
2022-08-28T07:34:03.096Z,25.34
2022-08-28T07:36:30.167Z,25.31
2022-08-28T07:38:59.396Z,25.46
2022-08-28T07:41:30.345Z,25.57
2022-08-28T07:43:56.970Z,25.68
2022-08-28T07:46:23.515Z,25.66
2022-08-28T07:48:50.018Z,25.74
2022-08-28T07:51:16.503Z,25.82
2022-08-28T07:53:43.004Z,25.93
2022-08-28T07:56:09.493Z,25.98
2022-08-28T07:58:36.008Z,25.98
2022-08-28T08:01:02.545Z,25.99
2022-08-28T08:03:30.763Z,26.02
2022-08-28T08:06:04.514Z,25.82
2022-08-28T08:08:33.172Z,25.85
2022-08-28T08:11:16.566Z,25.75
2022-08-28T08:13:46.009Z,25.68
2022-08-28T08:16:19.468Z,25.72
2022-08-28T08:18:46.266Z,25.84
2022-08-28T08:21:15.213Z,25.35
2022-08-28T08:23:42.157Z,25.12
2022-08-28T08:26:15.805Z,25.32
2022-08-28T08:28:43.468Z,25.51
2022-08-28T08:31:20.103Z,25.61
2022-08-28T08:33:50.090Z,25.69
2022-08-28T08:36:20.818Z,25.36
2022-08-28T08:38:47.492Z,25.41
2022-08-28T08:41:23.227Z,25.67
2022-08-28T08:44:13.559Z,25.79
2022-08-28T08:47:08.613Z,25.82
2022-08-28T08:49:41.724Z,25.79
2022-08-28T08:52:26.644Z,25.55
2022-08-28T08:55:08.064Z,25.59
2022-08-28T08:57:38.113Z,25.28
2022-08-28T09:00:15.073Z,25.19
2022-08-28T09:03:13.079Z,25.28
2022-08-28T09:05:47.115Z,24.85
2022-08-28T09:08:25.311Z,24.88
2022-08-28T09:11:00.522Z,24.87
2022-08-28T09:13:54.595Z,24.89
2022-08-28T09:16:30.956Z,25.17
2022-08-28T09:19:00.178Z,25.24
2022-08-28T09:21:30.650Z,25.34
2022-08-28T09:24:02.050Z,25.06
2022-08-28T09:26:35.765Z,25.04
2022-08-28T09:29:06.677Z,24.91
2022-08-28T09:31:39.455Z,25.22
2022-08-28T09:34:35.444Z,25.53
2022-08-28T09:37:07.498Z,25.86
2022-08-28T09:39:34.340Z,26.11
2022-08-28T09:42:06.087Z,25.66
2022-08-28T09:44:32.754Z,25.09
2022-08-28T09:46:59.675Z,25.16
2022-08-28T09:49:29.752Z,25.23
2022-08-28T09:51:58.662Z,25.49
2022-08-28T09:54:42.216Z,25.52
2022-08-28T09:57:08.772Z,25.73
2022-08-28T09:59:35.267Z,26.13
2022-08-28T10:02:30.108Z,26.02
2022-08-28T10:05:00.163Z,26.12
2022-08-28T10:07:41.603Z,25.22
2022-08-28T10:10:26.216Z,25.20
2022-08-28T10:13:22.985Z,25.70
2022-08-28T10:16:13.012Z,25.65
2022-08-28T10:18:55.976Z,25.51
2022-08-28T10:21:38.899Z,25.78
2022-08-28T10:24:14.359Z,25.66
2022-08-28T10:27:02.459Z,25.59
2022-08-28T10:29:40.836Z,25.66
2022-08-28T10:32:48.896Z,25.02
2022-08-28T10:35:22.890Z,24.62
2022-08-28T10:38:11.384Z,24.52
2022-08-28T10:40:53.856Z,24.04
2022-08-28T10:43:38.538Z,24.17
2022-08-28T10:46:13.339Z,24.18
2022-08-28T10:48:44.564Z,24.66
2022-08-28T10:51:34.949Z,25.09
2022-08-28T10:54:32.770Z,25.53
2022-08-28T10:57:29.446Z,25.90
2022-08-28T10:59:55.971Z,26.32
2022-08-28T11:02:26.824Z,26.32
2022-08-28T11:04:58.664Z,26.26
2022-08-28T11:07:35.830Z,26.46
2022-08-28T11:10:23.770Z,26.79
2022-08-28T11:12:52.296Z,27.02
2022-08-28T11:15:34.251Z,27.14
2022-08-28T11:18:15.097Z,27.34
2022-08-28T11:21:09.648Z,27.42
2022-08-28T11:23:52.608Z,27.52
2022-08-28T11:26:37.678Z,27.48
2022-08-28T11:29:04.300Z,27.79
2022-08-28T11:31:35.257Z,27.32
2022-08-28T11:34:01.852Z,27.69
2022-08-28T11:36:28.289Z,27.75
2022-08-28T11:38:54.725Z,27.94
2022-08-28T11:41:24.856Z,28.15
2022-08-28T11:44:11.270Z,28.11
2022-08-28T11:46:39.867Z,28.13
2022-08-28T11:49:26.238Z,28.25
2022-08-28T11:52:35.094Z,28.03
2022-08-28T11:55:24.546Z,27.91
2022-08-28T11:58:17.747Z,27.60
2022-08-28T12:01:10.796Z,27.24
2022-08-28T12:03:40.967Z,27.23
2022-08-28T12:06:08.756Z,27.19
2022-08-28T12:08:44.104Z,27.20
2022-08-28T12:11:39.292Z,27.22
2022-08-28T12:14:40.522Z,27.32
2022-08-28T12:17:06.967Z,27.26
2022-08-28T12:19:56.286Z,27.15
2022-08-28T12:22:39.248Z,27.37
2022-08-28T12:25:22.335Z,27.50
2022-08-28T12:27:49.614Z,27.33
2022-08-28T12:30:28.638Z,27.33
2022-08-28T12:33:28.730Z,27.32
2022-08-28T12:36:02.757Z,27.34
2022-08-28T12:38:33.188Z,27.42
2022-08-28T12:41:01.608Z,27.49
2022-08-28T12:43:40.869Z,27.44
2022-08-28T12:46:26.968Z,27.64
2022-08-28T12:48:57.274Z,27.82
2022-08-28T12:51:25.729Z,28.10
2022-08-28T12:53:55.856Z,28.14
2022-08-28T12:56:25.260Z,28.44
2022-08-28T12:58:52.615Z,28.08
2022-08-28T13:01:33.866Z,28.07
2022-08-28T13:04:37.990Z,28.26
2022-08-28T13:07:17.303Z,28.54
2022-08-28T13:09:53.143Z,28.63
2022-08-28T13:12:32.007Z,28.83
2022-08-28T13:15:41.699Z,29.13
2022-08-28T13:18:08.323Z,29.50
2022-08-28T13:20:37.961Z,29.80
2022-08-28T13:23:05.107Z,29.90
2022-08-28T13:25:36.239Z,30.41
2022-08-28T13:28:14.964Z,30.62
2022-08-28T13:30:41.525Z,31.01
2022-08-28T13:33:24.263Z,31.46
2022-08-28T13:35:52.887Z,31.59
2022-08-28T13:38:21.866Z,31.74
2022-08-28T13:40:59.626Z,32.02
2022-08-28T13:43:29.920Z,32.16
2022-08-28T13:45:56.496Z,32.45
2022-08-28T13:48:27.402Z,32.66
2022-08-28T13:51:03.509Z,33.10
2022-08-28T13:53:32.248Z,33.53
2022-08-28T13:55:58.841Z,33.60
2022-08-28T13:58:25.898Z,33.65
2022-08-28T14:00:54.148Z,33.75
2022-08-28T14:03:21.244Z,34.15
2022-08-28T14:05:47.723Z,34.09
2022-08-28T14:08:14.318Z,34.56
2022-08-28T14:10:40.861Z,34.75
2022-08-28T14:13:07.326Z,35.02
2022-08-28T14:15:33.847Z,35.18
2022-08-28T14:18:00.514Z,35.28
2022-08-28T14:20:27.404Z,35.17
2022-08-28T14:22:53.885Z,35.23
2022-08-28T14:25:20.530Z,35.39
2022-08-28T14:27:47.031Z,35.71
2022-08-28T14:30:13.979Z,35.96
2022-08-28T14:32:40.501Z,36.43
2022-08-28T14:35:07.415Z,36.58
2022-08-28T14:37:33.950Z,36.59
2022-08-28T14:40:00.539Z,36.77
2022-08-28T14:42:27.345Z,36.98
2022-08-28T14:44:53.861Z,37.12
2022-08-28T14:47:20.538Z,36.88
2022-08-28T14:49:47.170Z,36.87
2022-08-28T14:52:13.697Z,36.68
2022-08-28T14:54:40.219Z,36.71
2022-08-28T14:57:06.789Z,36.69
2022-08-28T14:59:33.305Z,36.90
2022-08-28T15:02:01.071Z,36.93
2022-08-28T15:04:30.602Z,36.74
2022-08-28T15:06:59.282Z,36.86
2022-08-28T15:09:26.661Z,37.04
2022-08-28T15:11:53.226Z,37.23
2022-08-28T15:14:19.953Z,37.43
2022-08-28T15:16:47.869Z,37.61
2022-08-28T15:19:16.450Z,37.69
2022-08-28T15:21:55.166Z,37.79
2022-08-28T15:24:25.282Z,37.79
2022-08-28T15:26:52.233Z,37.83
2022-08-28T15:29:19.057Z,37.77
2022-08-28T15:31:48.293Z,37.61
2022-08-28T15:34:19.101Z,37.67
2022-08-28T15:36:54.715Z,37.76
2022-08-28T15:39:23.944Z,37.92
2022-08-28T15:41:50.892Z,37.84
2022-08-28T15:44:17.393Z,37.97
2022-08-28T15:46:52.552Z,37.96
2022-08-28T15:49:25.922Z,37.94
2022-08-28T15:51:53.609Z,37.76
2022-08-28T15:54:21.994Z,37.40
2022-08-28T15:56:49.762Z,37.09
2022-08-28T15:59:20.157Z,36.60
2022-08-28T16:01:47.398Z,36.14
2022-08-28T16:04:14.202Z,36.00
2022-08-28T16:06:41.058Z,36.08
2022-08-28T16:09:09.381Z,36.13
2022-08-28T16:11:36.734Z,36.27
2022-08-28T16:14:05.269Z,36.25
2022-08-28T16:16:32.744Z,36.21
2022-08-28T16:19:00.301Z,35.93
2022-08-28T16:21:28.876Z,35.55
2022-08-28T16:23:55.789Z,34.91
2022-08-28T16:26:22.306Z,34.57
2022-08-28T16:28:49.159Z,34.06
2022-08-28T16:31:18.874Z,33.77
2022-08-28T16:33:45.881Z,33.35
2022-08-28T16:36:14.086Z,32.99
2022-08-28T16:38:43.200Z,32.61
2022-08-28T16:41:19.601Z,32.27
2022-08-28T16:43:47.244Z,31.99
2022-08-28T16:46:24.121Z,31.63
2022-08-28T16:48:51.861Z,31.34
2022-08-28T16:51:19.839Z,31.15
2022-08-28T16:53:46.699Z,31.02
2022-08-28T16:56:16.921Z,30.72
2022-08-28T16:58:43.833Z,30.62
2022-08-28T17:01:12.217Z,30.49
2022-08-28T17:03:39.582Z,30.40
2022-08-28T17:06:13.312Z,30.33
2022-08-28T17:08:39.875Z,30.19
2022-08-28T17:11:06.776Z,30.07
2022-08-28T17:13:34.655Z,29.99
2022-08-28T17:16:01.423Z,29.95
2022-08-28T17:18:28.719Z,29.91
2022-08-28T17:20:55.217Z,29.83
2022-08-28T17:23:21.746Z,29.81
2022-08-28T17:25:48.311Z,29.79
2022-08-28T17:28:14.946Z,29.74
2022-08-28T17:30:41.519Z,29.66
2022-08-28T17:33:08.023Z,29.64
2022-08-28T17:35:41.950Z,29.68
2022-08-28T17:38:08.938Z,29.41
2022-08-28T17:40:35.508Z,29.52
2022-08-28T17:43:02.161Z,29.50
2022-08-28T17:45:29.113Z,29.45
2022-08-28T17:47:55.628Z,29.43
2022-08-28T17:50:22.351Z,29.41
2022-08-28T17:52:48.958Z,29.40
2022-08-28T17:55:17.012Z,29.24
2022-08-28T17:57:43.613Z,29.21
2022-08-28T18:00:12.607Z,29.18
2022-08-28T18:02:39.742Z,29.10
2022-08-28T18:05:08.176Z,29.06
2022-08-28T18:07:34.791Z,29.06
2022-08-28T18:10:01.300Z,29.06
2022-08-28T18:12:28.023Z,29.04
2022-08-28T18:14:54.534Z,28.85
2022-08-28T18:17:21.093Z,28.75
2022-08-28T18:19:47.602Z,28.75
2022-08-28T18:22:14.651Z,28.51
2022-08-28T18:24:41.614Z,28.48
2022-08-28T18:27:08.129Z,28.41
2022-08-28T18:29:37.869Z,28.19
2022-08-28T18:32:05.634Z,28.15
2022-08-28T18:34:32.199Z,27.97
2022-08-28T18:36:59.426Z,27.66
2022-08-28T18:39:29.410Z,27.24
2022-08-28T18:41:57.509Z,27.30
2022-08-28T18:44:24.495Z,27.24
2022-08-28T18:46:51.362Z,26.95
2022-08-28T18:49:18.001Z,27.19
2022-08-28T18:51:45.505Z,26.85
2022-08-28T18:54:18.039Z,26.83
2022-08-28T18:56:46.873Z,26.59
2022-08-28T18:59:15.574Z,26.66
2022-08-28T19:01:42.382Z,26.66
2022-08-28T19:04:09.015Z,26.59
2022-08-28T19:06:35.604Z,26.40
2022-08-28T19:09:02.834Z,26.38
2022-08-28T19:11:29.360Z,26.20
2022-08-28T19:13:56.089Z,26.35
2022-08-28T19:16:22.688Z,26.75
2022-08-28T19:18:52.170Z,26.98
2022-08-28T19:21:19.624Z,27.17
2022-08-28T19:23:56.155Z,27.25
2022-08-28T19:26:25.100Z,27.34
2022-08-28T19:28:51.916Z,27.42
2022-08-28T19:31:18.542Z,27.53
2022-08-28T19:33:46.662Z,27.58
2022-08-28T19:36:14.214Z,27.48
2022-08-28T19:38:41.357Z,27.62
2022-08-28T19:41:10.751Z,27.48
2022-08-28T19:43:44.269Z,27.55
2022-08-28T19:46:19.233Z,27.63
2022-08-28T19:48:48.355Z,27.70
2022-08-28T19:51:18.290Z,27.70
2022-08-28T19:53:57.726Z,27.64
2022-08-28T19:56:27.857Z,27.16
2022-08-28T19:58:58.819Z,26.90
2022-08-28T20:01:27.498Z,26.78
2022-08-28T20:03:54.037Z,26.98
2022-08-28T20:06:20.572Z,27.06
2022-08-28T20:08:47.043Z,27.09
2022-08-28T20:11:21.206Z,27.13
2022-08-28T20:13:47.705Z,27.16
2022-08-28T20:16:14.208Z,27.15
2022-08-28T20:18:40.728Z,27.17
2022-08-28T20:21:11.014Z,27.21
2022-08-28T20:23:38.226Z,27.24
2022-08-28T20:26:04.919Z,27.27
2022-08-28T20:28:31.413Z,27.32
2022-08-28T20:30:58.114Z,27.37
2022-08-28T20:33:24.666Z,27.36
2022-08-28T20:36:00.308Z,27.32
2022-08-28T20:38:26.844Z,27.32
2022-08-28T20:41:01.578Z,27.37
2022-08-28T20:43:28.051Z,27.34
2022-08-28T20:45:54.594Z,27.44
2022-08-28T20:48:21.120Z,27.45
2022-08-28T20:50:48.114Z,26.88
2022-08-28T20:53:36.976Z,26.46
2022-08-28T20:56:08.685Z,26.87
2022-08-28T20:58:35.778Z,26.93
2022-08-28T21:01:02.318Z,27.04
2022-08-28T21:03:28.908Z,27.04
2022-08-28T21:05:55.400Z,27.03
2022-08-28T21:08:21.909Z,27.03
2022-08-28T21:10:48.423Z,27.09
2022-08-28T21:13:15.050Z,27.12
2022-08-28T21:15:41.537Z,27.15
2022-08-28T21:18:08.131Z,27.10
2022-08-28T21:20:36.922Z,27.06
2022-08-28T21:23:05.720Z,27.08
2022-08-28T21:25:32.663Z,26.84
2022-08-28T21:27:59.155Z,26.89
2022-08-28T21:30:30.684Z,26.91
2022-08-28T21:32:57.165Z,26.87
2022-08-28T21:35:23.773Z,26.89
2022-08-28T21:37:50.262Z,26.89
2022-08-28T21:40:18.373Z,26.85
2022-08-28T21:42:45.076Z,26.80
2022-08-28T21:45:12.437Z,26.76
2022-08-28T21:47:40.241Z,26.71
2022-08-28T21:50:08.393Z,26.62
2022-08-28T21:52:35.303Z,26.63
2022-08-28T21:55:09.215Z,26.56
2022-08-28T21:57:36.084Z,26.53
2022-08-28T22:00:09.213Z,26.34
2022-08-28T22:02:35.936Z,26.31
2022-08-28T22:05:02.593Z,26.25
2022-08-28T22:07:29.103Z,26.24
2022-08-28T22:09:55.733Z,26.18
2022-08-28T22:12:22.332Z,26.08
2022-08-28T22:14:48.840Z,26.16
2022-08-28T22:17:15.418Z,26.13
2022-08-28T22:19:42.092Z,26.09
2022-08-28T22:22:12.126Z,26.05
2022-08-28T22:24:38.667Z,26.04
2022-08-28T22:27:05.760Z,25.97
2022-08-28T22:29:32.577Z,25.93
2022-08-28T22:31:59.129Z,25.93
2022-08-28T22:34:25.685Z,25.88
2022-08-28T22:36:52.152Z,25.83
2022-08-28T22:39:18.649Z,25.78
2022-08-28T22:41:45.153Z,25.81
2022-08-28T22:44:11.750Z,25.78
2022-08-28T22:46:38.325Z,25.79
2022-08-28T22:49:04.883Z,25.79
2022-08-28T22:51:34.308Z,25.75
2022-08-28T22:54:00.885Z,25.78
2022-08-28T22:56:27.368Z,25.71
2022-08-28T22:58:53.887Z,25.61
2022-08-28T23:01:25.091Z,25.64
2022-08-28T23:03:51.652Z,25.55
2022-08-28T23:06:18.732Z,25.55
2022-08-28T23:08:45.262Z,25.38
2022-08-28T23:11:11.826Z,25.47
2022-08-28T23:13:39.801Z,25.40
2022-08-28T23:16:07.726Z,25.35
2022-08-28T23:18:57.563Z,25.27
2022-08-28T23:21:23.884Z,25.11
2022-08-28T23:23:54.054Z,24.98
2022-08-28T23:26:20.915Z,24.49
2022-08-28T23:28:47.466Z,24.22
2022-08-28T23:31:14.063Z,23.20
2022-08-28T23:33:40.884Z,23.55
2022-08-28T23:36:07.781Z,23.84
2022-08-28T23:38:42.839Z,23.84
2022-08-28T23:41:11.039Z,23.87
2022-08-28T23:43:38.161Z,23.86
2022-08-28T23:46:04.919Z,23.91
2022-08-28T23:48:31.468Z,23.80
2022-08-28T23:50:58.554Z,23.85
2022-08-28T23:53:25.700Z,23.87
2022-08-28T23:55:52.213Z,23.68
2022-08-28T23:58:20.742Z,23.80
